createdAt,value
2019-06-07T00:00:39.560Z,5.45
2019-06-07T00:03:02.219Z,5.15
2019-06-07T00:05:31.697Z,6.00
2019-06-07T00:08:07.764Z,6.50
2019-06-07T00:10:36.549Z,4.80
2019-06-07T00:13:04.203Z,4.75
2019-06-07T00:15:33.842Z,4.87
2019-06-07T00:18:03.239Z,6.33
2019-06-07T00:20:32.687Z,6.12
2019-06-07T00:23:02.051Z,6.58
2019-06-07T00:25:31.462Z,7.00
2019-06-07T00:28:00.906Z,5.95
2019-06-07T00:30:42.342Z,5.15
2019-06-07T00:33:02.139Z,5.50
2019-06-07T00:35:31.466Z,5.08
2019-06-07T00:38:00.841Z,5.25
2019-06-07T00:40:32.292Z,4.30
2019-06-07T00:43:01.224Z,4.35
2019-06-07T00:45:30.630Z,3.22
2019-06-07T00:47:59.997Z,4.53
2019-06-07T00:50:29.305Z,4.10
2019-06-07T00:53:14.726Z,3.80
2019-06-07T00:55:29.783Z,2.98
2019-06-07T00:57:59.456Z,5.58
2019-06-07T01:00:28.833Z,5.53
2019-06-07T01:02:58.177Z,4.95
2019-06-07T01:05:31.475Z,5.90
2019-06-07T01:07:58.739Z,5.45
2019-06-07T01:10:51.328Z,5.20
2019-06-07T01:12:59.249Z,4.15
2019-06-07T01:15:29.357Z,5.65
2019-06-07T01:18:33.508Z,5.28
2019-06-07T01:20:30.196Z,6.30
2019-06-07T01:22:59.528Z,5.65
2019-06-07T01:25:29.275Z,5.22
2019-06-07T01:27:58.664Z,5.97
2019-06-07T01:30:29.237Z,5.67
2019-06-07T01:32:59.424Z,4.80
2019-06-07T01:35:29.965Z,4.20
2019-06-07T01:37:59.640Z,3.65
2019-06-07T01:40:32.342Z,3.20
2019-06-07T01:43:00.064Z,3.02
2019-06-07T01:45:31.193Z,2.70
2019-06-07T01:48:01.514Z,2.00
2019-06-07T01:50:30.894Z,2.83
2019-06-07T01:53:00.342Z,4.30
2019-06-07T01:55:32.527Z,3.33
2019-06-07T01:58:00.733Z,4.60
2019-06-07T02:00:32.565Z,6.33
2019-06-07T02:03:01.274Z,5.60
2019-06-07T02:05:32.367Z,3.87
2019-06-07T02:08:01.730Z,3.85
2019-06-07T02:10:33.772Z,3.40
2019-06-07T02:13:02.196Z,3.80
2019-06-07T02:15:36.478Z,4.25
2019-06-07T02:18:02.636Z,4.05
2019-06-07T02:20:34.543Z,3.65
2019-06-07T02:23:03.239Z,6.22
2019-06-07T02:25:43.815Z,4.40
2019-06-07T02:28:26.567Z,4.60
2019-06-07T02:30:44.237Z,3.90
2019-06-07T02:33:05.862Z,6.00
2019-06-07T02:35:40.478Z,5.70
2019-06-07T02:38:06.311Z,6.62
2019-06-07T02:40:37.386Z,7.55
2019-06-07T02:43:06.799Z,6.37
2019-06-07T02:45:42.795Z,5.50
2019-06-07T02:48:07.546Z,7.40
2019-06-07T02:50:38.791Z,5.67
2019-06-07T02:53:08.058Z,5.50
2019-06-07T02:56:26.963Z,5.40
2019-06-07T02:58:08.474Z,5.28
2019-06-07T03:01:04.025Z,4.37
2019-06-07T03:03:18.458Z,5.20
2019-06-07T03:05:48.854Z,4.12
2019-06-07T03:08:18.826Z,3.33
2019-06-07T03:10:50.181Z,3.27
2019-06-07T03:13:21.463Z,3.05
2019-06-07T03:15:55.678Z,4.75
2019-06-07T03:18:43.410Z,4.28
2019-06-07T03:21:15.483Z,6.90
2019-06-07T03:23:46.576Z,6.33
2019-06-07T03:26:17.661Z,6.47
2019-06-07T03:28:47.569Z,6.72
2019-06-07T03:31:16.911Z,5.53
2019-06-07T03:33:46.273Z,6.03
2019-06-07T03:36:24.061Z,5.08
2019-06-07T03:38:46.970Z,4.95
2019-06-07T03:41:16.441Z,5.70
2019-06-07T03:43:45.988Z,5.12
2019-06-07T03:46:15.354Z,4.30
2019-06-07T03:48:44.747Z,6.10
2019-06-07T03:51:24.609Z,5.80
2019-06-07T03:53:45.282Z,6.17
2019-06-07T03:56:15.894Z,7.08
2019-06-07T03:58:50.089Z,7.65
2019-06-07T04:01:16.705Z,6.60
2019-06-07T04:03:51.407Z,5.85
2019-06-07T04:06:17.108Z,4.78
2019-06-07T04:08:47.424Z,5.45
2019-06-07T04:11:16.751Z,3.98
2019-06-07T04:13:46.121Z,4.53
2019-06-07T04:16:15.449Z,4.70
2019-06-07T04:18:44.788Z,4.42
2019-06-07T04:21:14.209Z,6.42
2019-06-07T04:23:45.650Z,6.25
2019-06-07T04:26:14.623Z,5.97
2019-06-07T04:31:15.258Z,5.60
2019-06-07T04:33:44.610Z,5.37
2019-06-07T04:36:14.989Z,4.67
2019-06-07T04:38:46.166Z,3.92
2019-06-07T04:41:16.269Z,3.55
2019-06-07T04:43:46.684Z,4.70
2019-06-07T04:46:17.697Z,3.33
2019-06-07T04:48:50.190Z,3.98
2019-06-07T04:51:21.296Z,3.45
2019-06-07T04:53:50.726Z,3.60
2019-06-07T04:56:20.058Z,3.10
2019-06-07T04:58:49.508Z,2.65
2019-06-07T05:01:27.200Z,4.30
2019-06-07T05:03:49.994Z,5.12
2019-06-07T05:06:19.336Z,5.97
2019-06-07T05:08:48.724Z,6.15
2019-06-07T05:11:18.065Z,4.70
2019-06-07T05:13:47.383Z,4.20
2019-06-07T05:16:16.829Z,4.30
2019-06-07T05:18:46.249Z,5.30
2019-06-07T05:21:15.579Z,4.65
2019-06-07T05:24:07.552Z,3.15
2019-06-07T05:26:15.971Z,2.95
2019-06-07T05:28:45.315Z,2.77
2019-06-07T05:31:14.644Z,2.30
2019-06-07T05:33:44.064Z,2.98
2019-06-07T05:36:13.522Z,3.08
2019-06-07T05:38:44.955Z,3.52
2019-06-07T05:41:13.915Z,2.75
2019-06-07T05:43:51.505Z,3.30
2019-06-07T05:46:14.329Z,3.15
2019-06-07T05:48:43.965Z,4.08
2019-06-07T05:51:13.431Z,4.70
2019-06-07T05:53:45.844Z,4.60
2019-06-07T05:56:14.677Z,3.75
2019-06-07T05:58:44.788Z,3.62
2019-06-07T06:01:42.041Z,3.83
2019-06-07T06:03:48.300Z,4.10
2019-06-07T06:06:17.472Z,3.25
2019-06-07T06:08:47.969Z,3.47
2019-06-07T06:11:17.947Z,3.25
2019-06-07T06:14:06.101Z,2.95
2019-06-07T06:16:18.446Z,3.70
2019-06-07T06:18:49.210Z,3.52
2019-06-07T06:21:20.293Z,3.37
2019-06-07T06:23:52.270Z,2.70
2019-06-07T06:26:22.042Z,1.92
2019-06-07T06:28:51.399Z,1.75
2019-06-07T06:31:20.738Z,1.60
2019-06-07T06:33:50.309Z,1.65
2019-06-07T06:36:20.088Z,1.20
2019-06-07T06:38:51.470Z,1.10
2019-06-07T06:41:21.085Z,1.37
2019-06-07T06:43:52.594Z,1.85
2019-06-07T06:46:38.000Z,1.60
2019-06-07T06:48:55.347Z,1.60
2019-06-07T06:51:23.845Z,1.10
2019-06-07T06:53:53.166Z,1.40
2019-06-07T06:56:23.381Z,2.10
2019-06-07T06:59:34.144Z,2.30
2019-06-07T07:01:23.839Z,2.12
2019-06-07T07:04:12.239Z,1.67
2019-06-07T07:06:26.714Z,2.42
2019-06-07T07:08:56.905Z,2.52
2019-06-07T07:11:27.333Z,1.77
2019-06-07T07:13:57.114Z,1.77
2019-06-07T07:16:26.798Z,1.90
2019-06-07T07:18:56.136Z,1.60
2019-06-07T07:21:25.464Z,1.52
2019-06-07T07:24:19.723Z,1.80
2019-06-07T07:26:25.870Z,2.10
2019-06-07T07:28:57.769Z,2.00
2019-06-07T07:31:26.308Z,2.30
2019-06-07T07:36:38.863Z,2.02
2019-06-07T07:39:04.599Z,2.80
2019-06-07T07:41:28.796Z,2.30
2019-06-07T07:44:05.781Z,2.27
2019-06-07T07:46:30.495Z,2.67
2019-06-07T07:48:59.958Z,2.25
2019-06-07T07:51:29.280Z,2.55
2019-06-07T07:54:10.054Z,1.85
2019-06-07T07:56:30.892Z,2.00
2019-06-07T07:59:01.755Z,2.75
2019-06-07T08:01:31.276Z,2.35
2019-06-07T08:04:00.865Z,2.27
2019-06-07T08:06:30.192Z,2.72
2019-06-07T08:08:59.574Z,3.00
2019-06-07T08:11:30.278Z,3.72
2019-06-07T08:13:59.612Z,3.55
2019-06-07T08:16:29.275Z,3.87
2019-06-07T08:19:04.022Z,4.10
2019-06-07T08:21:29.635Z,4.17
2019-06-07T08:24:03.582Z,4.70
2019-06-07T08:26:30.025Z,4.33
2019-06-07T08:29:02.659Z,5.45
2019-06-07T08:31:30.510Z,5.75
2019-06-07T08:34:00.735Z,4.87
2019-06-07T08:36:41.319Z,3.30
2019-06-07T08:39:07.371Z,3.70
2019-06-07T08:41:32.933Z,4.87
2019-06-07T08:44:21.820Z,4.85
2019-06-07T08:46:33.364Z,5.05
2019-06-07T08:49:04.730Z,4.10
2019-06-07T08:51:33.751Z,4.45
2019-06-07T08:54:21.577Z,4.58
2019-06-07T08:56:35.301Z,3.20
2019-06-07T08:59:11.261Z,3.12
2019-06-07T09:01:35.968Z,3.47
2019-06-07T09:04:09.946Z,3.27
2019-06-07T09:09:08.817Z,5.47
2019-06-07T09:11:38.139Z,2.58
2019-06-07T09:14:09.248Z,3.47
2019-06-07T09:16:38.659Z,2.87
2019-06-07T09:19:10.831Z,3.00
2019-06-07T09:21:39.142Z,3.50
2019-06-07T09:24:11.577Z,3.72
2019-06-07T09:26:39.607Z,2.95
2019-06-07T09:29:11.789Z,2.60
2019-06-07T09:31:52.455Z,2.20
2019-06-07T09:34:14.925Z,3.27
2019-06-07T09:36:42.897Z,3.12
2019-06-07T09:39:12.876Z,2.40
2019-06-07T09:41:49.585Z,3.45
2019-06-07T09:44:24.163Z,3.40
2019-06-07T09:46:44.572Z,2.60
2019-06-07T09:49:28.878Z,2.75
2019-06-07T09:51:45.129Z,3.47
2019-06-07T09:55:02.361Z,3.67
2019-06-07T09:56:46.345Z,3.52
2019-06-07T09:59:16.072Z,3.10
2019-06-07T10:01:45.394Z,2.65
2019-06-07T10:04:30.345Z,2.60
2019-06-07T10:06:45.962Z,2.22
2019-06-07T10:14:16.466Z,2.83
2019-06-07T10:16:46.849Z,2.87
2019-06-07T10:19:17.260Z,4.78
2019-06-07T10:21:46.687Z,3.33
2019-06-07T10:24:16.087Z,3.08
2019-06-07T10:26:45.430Z,2.92
2019-06-07T10:29:14.785Z,3.05
2019-06-07T10:31:44.139Z,3.47
2019-06-07T10:34:13.471Z,2.90
2019-06-07T10:36:42.949Z,3.90
2019-06-07T10:39:12.449Z,4.10
2019-06-07T10:41:42.071Z,2.98
2019-06-07T10:44:11.781Z,2.90
2019-06-07T10:46:41.205Z,2.40
2019-06-07T10:49:12.188Z,2.70
2019-06-07T10:51:42.731Z,2.77
2019-06-07T10:54:24.584Z,2.85
2019-06-07T10:56:43.223Z,2.17
2019-06-07T10:59:13.708Z,2.22
2019-06-07T11:01:43.253Z,2.50
2019-06-07T11:04:13.807Z,2.40
2019-06-07T11:06:43.383Z,3.05
2019-06-07T11:09:14.126Z,2.40
2019-06-07T11:11:43.873Z,2.03
2019-06-07T11:14:14.599Z,1.47
2019-06-07T11:16:44.321Z,1.90
2019-06-07T11:19:17.290Z,2.98
2019-06-07T11:21:44.731Z,2.60
2019-06-07T11:24:14.423Z,2.00
2019-06-07T11:26:43.906Z,2.50
2019-06-07T11:29:14.705Z,2.50
2019-06-07T11:31:47.434Z,3.60
2019-06-07T11:34:16.053Z,2.87
2019-06-07T11:36:45.551Z,3.83
2019-06-07T11:39:15.220Z,2.60
2019-06-07T11:41:44.755Z,3.17
2019-06-07T11:44:14.992Z,3.02
2019-06-07T11:46:44.535Z,2.42
2019-06-07T11:49:19.813Z,2.37
2019-06-07T11:51:45.119Z,3.95
2019-06-07T11:54:16.068Z,2.90
2019-06-07T11:56:45.690Z,2.95
2019-06-07T11:59:15.386Z,3.00
2019-06-07T12:01:44.845Z,3.35
2019-06-07T12:04:31.088Z,3.40
2019-06-07T12:06:45.365Z,3.15
2019-06-07T12:09:14.728Z,4.22
2019-06-07T12:11:44.207Z,4.75
2019-06-07T12:14:14.630Z,3.87
2019-06-07T12:16:44.286Z,5.35
2019-06-07T12:19:13.694Z,4.47
2019-06-07T12:21:43.086Z,3.77
2019-06-07T12:24:14.200Z,5.60
2019-06-07T12:26:43.917Z,4.05
2019-06-07T12:29:13.244Z,3.00
2019-06-07T12:31:42.987Z,3.05
2019-06-07T12:34:13.278Z,2.65
2019-06-07T12:36:42.865Z,5.58
2019-06-07T12:39:12.226Z,3.42
2019-06-07T12:41:41.556Z,3.50
2019-06-07T12:44:12.476Z,3.20
2019-06-07T12:46:42.030Z,3.45
2019-06-07T12:49:11.350Z,5.03
2019-06-07T12:51:40.675Z,4.12
2019-06-07T12:54:10.054Z,4.05
2019-06-07T12:56:39.388Z,4.40
2019-06-07T12:59:08.782Z,5.45
2019-06-07T13:01:38.222Z,3.87
2019-06-07T13:04:07.832Z,2.70
2019-06-07T13:06:37.185Z,3.40
2019-06-07T13:09:07.265Z,4.00
2019-06-07T13:11:36.604Z,3.50
2019-06-07T13:14:06.161Z,3.17
2019-06-07T13:16:35.566Z,4.03
2019-06-07T13:19:04.891Z,3.87
2019-06-07T13:21:34.255Z,3.20
2019-06-07T13:24:03.661Z,3.58
2019-06-07T13:26:34.063Z,3.30
2019-06-07T13:29:03.463Z,3.47
2019-06-07T13:31:32.790Z,2.90
2019-06-07T13:34:02.168Z,3.52
2019-06-07T13:36:31.573Z,3.15
2019-06-07T13:39:01.862Z,3.50
2019-06-07T13:41:42.602Z,3.58
2019-06-07T13:44:04.358Z,3.33
2019-06-07T13:46:33.746Z,3.60
2019-06-07T13:49:03.068Z,3.80
2019-06-07T13:51:33.390Z,3.58
2019-06-07T13:54:03.035Z,3.12
2019-06-07T13:56:32.358Z,4.00
2019-06-07T13:59:01.682Z,4.10
2019-06-07T14:01:31.159Z,4.00
2019-06-07T14:04:00.557Z,3.58
2019-06-07T14:06:30.258Z,3.58
2019-06-07T14:09:01.272Z,2.45
2019-06-07T14:11:49.391Z,2.20
2019-06-07T14:14:03.393Z,2.55
2019-06-07T14:16:32.906Z,2.30
2019-06-07T14:19:02.314Z,2.20
2019-06-07T14:21:31.904Z,2.25
2019-06-07T14:24:01.274Z,2.45
2019-06-07T14:26:32.561Z,4.45
2019-06-07T14:29:01.789Z,4.58
2019-06-07T14:31:32.264Z,3.62
2019-06-07T14:34:02.335Z,3.22
2019-06-07T14:36:33.372Z,3.10
2019-06-07T14:39:03.083Z,3.22
2019-06-07T14:41:33.771Z,3.30
2019-06-07T14:44:03.297Z,2.87
2019-06-07T14:46:32.637Z,2.95
2019-06-07T14:49:02.043Z,2.98
2019-06-07T14:51:33.316Z,3.22
2019-06-07T14:54:02.448Z,3.80
2019-06-07T14:56:33.186Z,4.10
2019-06-07T14:59:02.962Z,3.70
2019-06-07T15:01:33.482Z,3.90
2019-06-07T15:04:03.132Z,4.20
2019-06-07T15:06:32.836Z,3.80
2019-06-07T15:09:02.279Z,3.90
2019-06-07T15:11:33.274Z,3.30
2019-06-07T15:14:02.710Z,3.58
2019-06-07T15:16:32.442Z,4.03
2019-06-07T15:19:03.489Z,4.25
2019-06-07T15:21:33.068Z,4.37
2019-06-07T15:24:02.404Z,3.85
2019-06-07T15:26:32.739Z,5.58
2019-06-07T15:29:03.062Z,3.75
2019-06-07T15:31:34.457Z,3.87
2019-06-07T15:34:03.462Z,4.10
2019-06-07T15:36:32.796Z,4.33
2019-06-07T15:39:02.138Z,4.47
2019-06-07T15:41:33.192Z,4.15
2019-06-07T15:44:02.567Z,3.83
2019-06-07T15:46:31.998Z,3.95
2019-06-07T15:49:01.401Z,4.00
2019-06-07T15:51:32.273Z,3.85
2019-06-07T15:54:01.835Z,4.25
2019-06-07T15:56:32.581Z,4.20
2019-06-07T15:59:02.067Z,3.52
2019-06-07T16:01:31.445Z,3.72
2019-06-07T16:04:00.834Z,3.77
2019-06-07T16:06:30.181Z,4.30
2019-06-07T16:08:59.543Z,4.12
2019-06-07T16:11:29.279Z,4.60
2019-06-07T16:13:58.603Z,3.83
2019-06-07T16:16:28.191Z,3.72
2019-06-07T16:18:57.598Z,4.65
2019-06-07T16:21:27.014Z,4.42
2019-06-07T16:23:56.361Z,4.37
2019-06-07T16:26:25.738Z,4.53
2019-06-07T16:28:57.284Z,5.33
2019-06-07T16:31:26.163Z,4.42
2019-06-07T16:33:55.499Z,4.67
2019-06-07T16:36:24.822Z,5.08
2019-06-07T16:38:54.180Z,4.85
2019-06-07T16:41:23.600Z,4.83
2019-06-07T16:43:52.958Z,4.45
2019-06-07T16:46:23.172Z,5.37
2019-06-07T16:48:52.505Z,5.22
2019-06-07T16:51:21.859Z,4.95
2019-06-07T16:53:51.206Z,4.40
2019-06-07T16:56:20.540Z,3.70
2019-06-07T16:58:50.164Z,3.92
2019-06-07T17:01:19.498Z,4.55
2019-06-07T17:03:48.819Z,4.50
2019-06-07T17:06:18.318Z,4.67
2019-06-07T17:08:48.425Z,4.53
2019-06-07T17:11:17.851Z,3.80
2019-06-07T17:13:48.484Z,4.00
2019-06-07T17:16:17.925Z,3.90
2019-06-07T17:18:47.342Z,4.67
2019-06-07T17:21:16.670Z,5.85
2019-06-07T17:23:47.301Z,4.67
2019-06-07T17:26:16.898Z,4.62
2019-06-07T17:28:46.275Z,5.10
2019-06-07T17:31:16.192Z,4.05
2019-06-07T17:33:46.001Z,4.28
2019-06-07T17:36:15.542Z,5.28
2019-06-07T17:38:44.917Z,5.20
2019-06-07T17:41:14.265Z,4.90
2019-06-07T17:43:52.990Z,4.50
2019-06-07T17:46:14.664Z,4.65
2019-06-07T17:48:44.000Z,3.90
2019-06-07T17:51:13.337Z,4.37
2019-06-07T17:53:43.886Z,3.67
2019-06-07T17:56:13.388Z,4.08
2019-06-07T17:58:42.771Z,3.70
2019-06-07T18:01:12.154Z,3.70
2019-06-07T18:03:42.971Z,3.75
2019-06-07T18:06:13.894Z,3.25
2019-06-07T18:08:43.902Z,4.40
2019-06-07T18:11:13.269Z,4.45
2019-06-07T18:13:43.935Z,4.47
2019-06-07T18:16:13.575Z,3.60
2019-06-07T18:18:42.906Z,3.98
2019-06-07T18:21:12.640Z,4.10
2019-06-07T18:23:42.116Z,3.05
2019-06-07T18:26:11.511Z,2.95
2019-06-07T18:28:40.890Z,3.10
2019-06-07T18:31:10.269Z,3.12
2019-06-07T18:33:39.682Z,3.55
2019-06-07T18:36:09.041Z,3.12
2019-06-07T18:38:38.369Z,3.60
2019-06-07T18:41:07.860Z,3.25
2019-06-07T18:43:37.281Z,3.37
2019-06-07T18:46:06.615Z,2.90
2019-06-07T18:48:35.989Z,3.10
2019-06-07T18:51:05.586Z,3.80
2019-06-07T18:53:35.034Z,4.08
2019-06-07T18:56:04.837Z,3.85
2019-06-07T18:58:34.231Z,4.10
2019-06-07T19:01:03.778Z,3.95
2019-06-07T19:03:33.133Z,4.10
2019-06-07T19:06:02.750Z,3.67
2019-06-07T19:08:32.374Z,3.92
2019-06-07T19:11:01.797Z,4.10
2019-06-07T19:13:31.189Z,3.77
2019-06-07T19:16:00.647Z,4.45
2019-06-07T19:18:29.969Z,4.58
2019-06-07T19:21:00.667Z,3.92
2019-06-07T19:23:30.190Z,3.20
2019-06-07T19:26:00.684Z,3.58
2019-06-07T19:28:30.271Z,4.05
2019-06-07T19:30:59.622Z,3.33
2019-06-07T19:33:29.068Z,3.67
2019-06-07T19:35:59.523Z,2.98
2019-06-07T19:38:29.081Z,3.75
2019-06-07T19:41:15.045Z,3.52
2019-06-07T19:43:30.479Z,3.47
2019-06-07T19:46:00.387Z,3.05
2019-06-07T19:48:30.971Z,3.58
2019-06-07T19:51:01.013Z,2.80
2019-06-07T19:53:30.524Z,2.72
2019-06-07T19:56:01.434Z,4.05
2019-06-07T19:58:31.061Z,4.10
2019-06-07T20:01:00.382Z,3.90
2019-06-07T20:03:29.867Z,3.58
2019-06-07T20:06:00.219Z,3.22
2019-06-07T20:08:30.480Z,4.00
2019-06-07T20:11:02.642Z,4.80
2019-06-07T20:13:32.343Z,5.33
2019-06-07T20:16:02.932Z,5.08
2019-06-07T20:18:32.808Z,4.78
2019-06-07T20:21:02.647Z,5.37
2019-06-07T20:23:32.174Z,5.12
2019-06-07T20:26:02.476Z,5.50
2019-06-07T20:28:33.054Z,3.92
2019-06-07T20:31:03.784Z,3.60
2019-06-07T20:33:33.312Z,4.87
2019-06-07T20:36:02.764Z,4.53
2019-06-07T20:38:32.133Z,3.50
2019-06-07T20:41:01.476Z,3.50
2019-06-07T20:43:30.885Z,3.75
2019-06-07T20:46:02.183Z,4.17
2019-06-07T20:48:31.547Z,4.67
2019-06-07T20:51:02.534Z,3.70
2019-06-07T20:53:32.049Z,3.15
2019-06-07T20:56:02.521Z,2.70
2019-06-07T20:58:31.964Z,3.12
2019-06-07T21:01:02.716Z,3.30
2019-06-07T21:03:32.157Z,2.87
2019-06-07T21:06:01.556Z,2.87
2019-06-07T21:08:31.037Z,3.55
2019-06-07T21:11:01.568Z,3.83
2019-06-07T21:13:31.136Z,4.60
2019-06-07T21:16:01.880Z,5.35
2019-06-07T21:18:31.386Z,4.90
2019-06-07T21:21:00.704Z,4.70
2019-06-07T21:23:30.101Z,4.35
2019-06-07T21:26:00.693Z,4.08
2019-06-07T21:28:30.193Z,4.50
2019-06-07T21:30:59.618Z,4.35
2019-06-07T21:33:28.962Z,4.58
2019-06-07T21:35:58.294Z,4.40
2019-06-07T21:38:27.665Z,4.12
2019-06-07T21:40:57.010Z,3.92
2019-06-07T21:43:26.356Z,3.35
2019-06-07T21:46:04.731Z,5.40
2019-06-07T21:48:26.742Z,4.53
2019-06-07T21:50:56.106Z,4.87
2019-06-07T21:53:25.423Z,4.30
2019-06-07T21:55:54.786Z,4.37
2019-06-07T21:58:24.229Z,7.42
2019-06-07T22:01:04.289Z,6.62
2019-06-07T22:03:35.576Z,7.20
2019-06-07T22:06:05.646Z,6.20
2019-06-07T22:08:35.192Z,5.92
2019-06-07T22:11:05.967Z,6.65
2019-06-07T22:13:35.476Z,5.40
2019-06-07T22:16:19.915Z,4.85
2019-06-07T22:18:35.927Z,5.15
2019-06-07T22:21:06.322Z,5.83
2019-06-07T22:23:35.884Z,6.58
2019-06-07T22:26:05.262Z,7.92
2019-06-07T22:28:34.656Z,6.78
2019-06-07T22:31:04.328Z,5.92
2019-06-07T22:33:33.697Z,4.97
2019-06-07T22:36:03.046Z,8.53
2019-06-07T22:38:32.367Z,6.58
2019-06-07T22:41:02.093Z,7.55
2019-06-07T22:43:31.613Z,7.35
2019-06-07T22:46:01.094Z,7.20
2019-06-07T22:48:30.438Z,6.58
2019-06-07T22:51:01.522Z,5.90
2019-06-07T22:53:30.851Z,6.62
2019-06-07T22:56:01.864Z,7.50
2019-06-07T22:58:31.283Z,5.80
2019-06-07T23:01:00.607Z,6.22
2019-06-07T23:03:29.973Z,6.22
2019-06-07T23:05:59.316Z,6.42
2019-06-07T23:08:28.657Z,6.55
2019-06-07T23:10:57.988Z,5.30
2019-06-07T23:13:28.404Z,5.22
2019-06-07T23:15:58.856Z,5.22
2019-06-07T23:18:28.206Z,6.55
2019-06-07T23:20:57.627Z,4.80
2019-06-07T23:23:26.959Z,5.47
2019-06-07T23:25:56.293Z,5.33
2019-06-07T23:28:25.645Z,5.50
2019-06-07T23:30:55.003Z,4.22
2019-06-07T23:33:24.345Z,4.20
2019-06-07T23:35:53.680Z,3.87
2019-06-07T23:38:23.403Z,5.97
2019-06-07T23:40:52.742Z,5.33
2019-06-07T23:43:22.080Z,6.50
2019-06-07T23:45:51.573Z,6.90
2019-06-07T23:48:21.631Z,5.72
2019-06-07T23:50:51.146Z,5.72
2019-06-07T23:53:22.045Z,6.17
2019-06-07T23:55:51.898Z,7.12
2019-06-07T23:58:22.217Z,7.20
